createdAt,value
2019-05-19T00:01:19.956Z,8.07
2019-05-19T00:03:48.296Z,8.03
2019-05-19T00:08:55.838Z,7.99
2019-05-19T00:11:24.163Z,8.01
2019-05-19T00:13:52.508Z,7.96
2019-05-19T00:16:20.845Z,7.78
2019-05-19T00:18:50.087Z,7.75
2019-05-19T00:21:19.487Z,7.74
2019-05-19T00:23:48.738Z,7.71
2019-05-19T00:26:17.081Z,7.66
2019-05-19T00:28:49.075Z,7.69
2019-05-19T00:31:17.403Z,7.75
2019-05-19T00:36:20.978Z,7.75
2019-05-19T00:39:06.342Z,7.71
2019-05-19T00:41:57.846Z,7.59
2019-05-19T00:44:38.128Z,7.53
2019-05-19T00:47:07.360Z,7.54
2019-05-19T00:49:41.432Z,7.59
2019-05-19T00:52:04.950Z,7.66
2019-05-19T00:54:33.295Z,7.61
2019-05-19T00:57:05.944Z,7.61
2019-05-19T00:59:55.715Z,7.64
2019-05-19T01:02:56.235Z,7.59
2019-05-19T01:05:32.293Z,7.46
2019-05-19T01:08:00.641Z,7.40
2019-05-19T01:10:58.982Z,7.41
2019-05-19T01:16:09.547Z,7.39
2019-05-19T01:18:37.918Z,7.31
2019-05-19T01:21:06.267Z,7.26
2019-05-19T01:23:34.624Z,7.21
2019-05-19T01:26:04.895Z,7.16
2019-05-19T01:28:33.513Z,7.24
2019-05-19T01:31:05.954Z,7.40
2019-05-19T01:36:10.452Z,7.55
2019-05-19T01:38:38.798Z,7.54
2019-05-19T01:41:09.045Z,7.54
2019-05-19T01:43:37.372Z,7.66
2019-05-19T01:46:05.710Z,7.74
2019-05-19T01:49:00.637Z,7.83
2019-05-19T01:51:57.560Z,7.84
2019-05-19T01:57:05.961Z,7.96
2019-05-19T01:59:36.248Z,8.11
2019-05-19T02:02:09.502Z,8.25
2019-05-19T02:05:04.040Z,8.35
2019-05-19T02:07:55.717Z,8.41
2019-05-19T02:10:28.288Z,8.36
2019-05-19T02:12:56.653Z,8.34
2019-05-19T02:15:24.986Z,8.30
2019-05-19T02:23:06.821Z,8.31
2019-05-19T02:25:35.140Z,8.29
2019-05-19T02:30:48.306Z,8.31
2019-05-19T02:33:19.865Z,8.39
2019-05-19T02:35:51.510Z,8.42
2019-05-19T02:38:19.859Z,8.51
2019-05-19T02:40:50.525Z,8.55
2019-05-19T02:43:18.868Z,8.56
2019-05-19T02:45:48.112Z,8.53
2019-05-19T02:48:16.463Z,8.55
2019-05-19T02:50:52.691Z,8.58
2019-05-19T02:53:18.765Z,8.62
2019-05-19T02:56:18.476Z,8.70
2019-05-19T02:58:46.730Z,8.78
2019-05-19T03:01:15.100Z,8.91
2019-05-19T03:04:07.118Z,8.97
2019-05-19T03:06:39.713Z,9.13
2019-05-19T03:09:09.964Z,9.13
2019-05-19T03:11:39.205Z,9.20
2019-05-19T03:14:07.557Z,9.25
2019-05-19T03:16:37.806Z,9.35
2019-05-19T03:19:08.102Z,9.36
2019-05-19T03:21:49.821Z,9.38
2019-05-19T03:24:18.168Z,9.42
2019-05-19T03:27:06.046Z,9.36
2019-05-19T03:29:48.578Z,9.39
2019-05-19T03:32:16.927Z,9.36
2019-05-19T03:34:59.069Z,9.39
2019-05-19T03:37:33.409Z,9.42
2019-05-19T03:40:06.226Z,9.40
2019-05-19T03:42:36.492Z,9.45
2019-05-19T03:47:40.039Z,9.45
2019-05-19T03:50:08.396Z,9.50
2019-05-19T03:52:39.718Z,9.51
2019-05-19T03:55:08.096Z,9.54
2019-05-19T04:00:22.595Z,9.52
2019-05-19T04:05:28.532Z,9.52
2019-05-19T04:08:00.084Z,9.49
2019-05-19T04:10:39.705Z,9.51
2019-05-19T04:13:08.109Z,9.53
2019-05-19T04:15:39.563Z,9.56
2019-05-19T04:18:07.856Z,9.63
2019-05-19T04:20:41.918Z,9.65
2019-05-19T04:23:11.166Z,9.68
2019-05-19T04:25:40.771Z,9.68
2019-05-19T04:28:10.030Z,9.72
2019-05-19T04:33:14.684Z,9.78
2019-05-19T04:35:43.034Z,9.82
2019-05-19T04:38:11.370Z,9.87
2019-05-19T04:40:39.735Z,9.94
2019-05-19T04:43:08.183Z,10.02
2019-05-19T04:45:37.410Z,10.07
2019-05-19T04:48:09.688Z,10.18
2019-05-19T04:50:36.538Z,10.29
2019-05-19T04:53:04.899Z,10.46
2019-05-19T04:55:40.773Z,10.64
2019-05-19T04:58:09.137Z,10.78
2019-05-19T05:00:40.944Z,10.87
2019-05-19T05:03:13.638Z,11.06
2019-05-19T05:05:45.327Z,11.21
2019-05-19T05:08:28.540Z,11.48
2019-05-19T05:10:52.081Z,11.78
2019-05-19T05:13:20.486Z,11.90
2019-05-19T05:15:53.463Z,11.91
2019-05-19T05:18:22.731Z,11.90
2019-05-19T05:21:01.418Z,12.11
2019-05-19T05:23:47.204Z,12.33
2019-05-19T05:26:15.573Z,12.30
2019-05-19T05:28:58.889Z,12.35
2019-05-19T05:31:40.017Z,12.43
2019-05-19T05:34:08.361Z,12.56
2019-05-19T05:36:36.732Z,12.62
2019-05-19T05:39:24.481Z,12.62
2019-05-19T05:44:27.011Z,12.54
2019-05-19T05:49:40.312Z,12.55
2019-05-19T05:52:12.060Z,12.56
2019-05-19T05:54:40.421Z,12.55
2019-05-19T05:57:10.672Z,12.65
2019-05-19T05:59:39.030Z,12.72
2019-05-19T06:02:07.372Z,12.83
2019-05-19T06:04:35.760Z,12.96
2019-05-19T06:07:11.896Z,12.87
2019-05-19T06:09:40.237Z,12.80
2019-05-19T06:12:09.491Z,12.83
2019-05-19T06:14:37.837Z,12.85
2019-05-19T06:17:20.129Z,12.99
2019-05-19T06:19:50.524Z,12.98
2019-05-19T06:27:33.298Z,12.97
2019-05-19T06:30:20.538Z,12.82
2019-05-19T06:32:49.071Z,12.86
2019-05-19T06:35:18.322Z,12.95
2019-05-19T06:37:48.581Z,13.05
2019-05-19T06:40:24.389Z,13.10
2019-05-19T06:42:56.507Z,13.10
2019-05-19T06:45:24.942Z,13.44
2019-05-19T06:50:29.522Z,13.99
2019-05-19T06:53:12.716Z,14.07
2019-05-19T06:55:32.132Z,14.33
2019-05-19T06:58:00.466Z,14.62
2019-05-19T07:03:06.108Z,14.75
2019-05-19T07:05:42.597Z,14.96
2019-05-19T07:08:21.646Z,15.13
2019-05-19T07:10:50.008Z,15.10
2019-05-19T07:13:28.436Z,14.82
2019-05-19T07:15:56.786Z,14.99
2019-05-19T07:18:26.044Z,15.07
2019-05-19T07:26:13.348Z,15.40
2019-05-19T07:28:41.726Z,15.48
2019-05-19T07:31:10.075Z,15.38
2019-05-19T07:33:46.492Z,15.43
2019-05-19T07:36:28.249Z,15.48
2019-05-19T07:38:56.604Z,15.37
2019-05-19T07:41:25.005Z,15.60
2019-05-19T07:43:55.275Z,15.59
2019-05-19T07:46:25.729Z,15.87
2019-05-19T07:48:55.201Z,15.95
2019-05-19T07:51:23.579Z,16.07
2019-05-19T07:53:53.812Z,16.28
2019-05-19T07:56:23.064Z,16.23
2019-05-19T07:58:59.585Z,16.03
2019-05-19T08:01:27.949Z,16.38
2019-05-19T08:04:01.498Z,16.29
2019-05-19T08:06:29.868Z,16.69
2019-05-19T08:08:59.233Z,16.82
2019-05-19T08:11:29.502Z,16.71
2019-05-19T08:13:57.845Z,16.48
2019-05-19T08:16:26.204Z,16.76
2019-05-19T08:18:54.597Z,16.77
2019-05-19T08:21:32.853Z,16.94
2019-05-19T08:24:02.937Z,16.95
2019-05-19T08:26:41.484Z,17.10
2019-05-19T08:29:13.462Z,17.15
2019-05-19T08:31:41.824Z,17.36
2019-05-19T08:34:25.564Z,17.48
2019-05-19T08:36:54.818Z,17.56
2019-05-19T08:39:31.305Z,17.72
2019-05-19T08:41:59.675Z,18.26
2019-05-19T08:44:31.955Z,18.39
2019-05-19T08:47:00.316Z,18.53
2019-05-19T08:49:40.984Z,18.09
2019-05-19T08:54:45.604Z,18.86
2019-05-19T08:57:13.990Z,18.96
2019-05-19T08:59:42.333Z,19.24
2019-05-19T09:02:20.736Z,19.12
2019-05-19T09:04:49.093Z,19.32
2019-05-19T09:07:23.268Z,18.74
2019-05-19T09:10:03.257Z,19.72
2019-05-19T09:12:31.709Z,20.65
2019-05-19T09:14:59.987Z,20.71
2019-05-19T09:17:33.348Z,19.91
2019-05-19T09:20:01.728Z,20.53
2019-05-19T09:22:30.072Z,20.95
2019-05-19T09:27:46.488Z,24.63
2019-05-19T09:32:57.131Z,22.19
2019-05-19T09:35:25.479Z,23.90
2019-05-19T09:37:57.464Z,24.07
2019-05-19T09:40:26.772Z,25.63
2019-05-19T09:42:54.957Z,27.79
2019-05-19T09:45:23.313Z,28.97
2019-05-19T09:50:29.032Z,28.79
2019-05-19T09:53:05.745Z,29.45
2019-05-19T09:55:34.088Z,31.40
2019-05-19T09:58:19.703Z,30.05
2019-05-19T10:00:44.216Z,29.22
2019-05-19T10:03:13.480Z,28.73
2019-05-19T10:05:42.747Z,30.24
2019-05-19T10:08:11.105Z,30.24
2019-05-19T10:11:18.781Z,29.51
2019-05-19T10:13:52.668Z,27.70
2019-05-19T10:16:20.951Z,28.72
2019-05-19T10:21:25.742Z,28.00
2019-05-19T10:23:54.970Z,31.04
2019-05-19T10:26:23.308Z,29.94
2019-05-19T10:29:15.880Z,32.68
2019-05-19T10:34:21.475Z,31.77
2019-05-19T10:37:20.293Z,33.09
2019-05-19T10:39:52.460Z,31.91
2019-05-19T10:42:21.818Z,34.75
2019-05-19T10:44:55.864Z,36.69
2019-05-19T10:47:24.191Z,35.74
2019-05-19T10:52:26.890Z,34.22
2019-05-19T10:55:00.978Z,35.70
2019-05-19T10:57:31.221Z,35.60
2019-05-19T10:59:59.580Z,36.61
2019-05-19T11:05:03.128Z,37.39
2019-05-19T11:07:31.484Z,37.04
2019-05-19T11:09:59.833Z,34.68
2019-05-19T11:12:28.184Z,34.64
2019-05-19T11:15:00.351Z,35.92
2019-05-19T11:17:30.461Z,35.63
2019-05-19T11:19:59.709Z,33.57
2019-05-19T11:22:40.980Z,32.83
2019-05-19T11:25:10.228Z,35.09
2019-05-19T11:27:42.406Z,35.76
2019-05-19T11:30:10.748Z,35.82
2019-05-19T11:32:41.006Z,37.99
2019-05-19T11:35:09.356Z,38.31
2019-05-19T11:37:37.726Z,38.52
2019-05-19T11:40:06.093Z,38.61
2019-05-19T11:42:34.478Z,36.45
2019-05-19T11:45:02.833Z,35.69
2019-05-19T11:47:31.191Z,37.83
2019-05-19T11:49:59.532Z,39.60
2019-05-19T11:52:32.511Z,36.86
2019-05-19T11:55:02.761Z,36.80
2019-05-19T11:57:31.148Z,34.45
2019-05-19T12:00:00.429Z,38.01
2019-05-19T12:02:35.143Z,36.62
2019-05-19T12:05:03.483Z,36.43
2019-05-19T12:10:09.250Z,39.48
2019-05-19T12:12:37.630Z,40.38
2019-05-19T12:15:06.630Z,36.14
2019-05-19T12:17:39.557Z,37.20
2019-05-19T12:20:08.829Z,37.09
2019-05-19T12:25:13.607Z,38.46
2019-05-19T12:27:45.684Z,37.64
2019-05-19T12:30:16.931Z,35.25
2019-05-19T12:32:45.315Z,34.25
2019-05-19T12:35:15.365Z,35.80
2019-05-19T12:37:54.950Z,36.45
2019-05-19T12:40:24.072Z,35.91
2019-05-19T12:42:53.332Z,37.97
2019-05-19T12:45:21.694Z,34.48
2019-05-19T12:47:50.057Z,35.98
2019-05-19T12:50:18.421Z,39.49
2019-05-19T12:55:26.136Z,35.65
2019-05-19T12:58:01.496Z,33.43
2019-05-19T13:00:30.765Z,34.22
2019-05-19T13:02:59.109Z,36.39
2019-05-19T13:08:28.888Z,34.10
2019-05-19T13:10:57.245Z,36.05
2019-05-19T13:13:25.582Z,35.43
2019-05-19T13:16:03.804Z,35.35
2019-05-19T13:21:07.402Z,38.96
2019-05-19T13:23:36.757Z,38.07
2019-05-19T13:26:05.301Z,40.20
2019-05-19T13:31:07.925Z,38.75
2019-05-19T13:36:13.653Z,36.84
2019-05-19T13:38:41.988Z,36.95
2019-05-19T13:41:10.352Z,34.12
2019-05-19T13:43:52.360Z,33.42
2019-05-19T13:46:20.880Z,36.91
2019-05-19T13:48:49.248Z,33.98
2019-05-19T13:51:17.622Z,32.74
2019-05-19T13:53:51.368Z,32.47
2019-05-19T13:56:19.998Z,31.45
2019-05-19T13:58:58.965Z,32.86
2019-05-19T14:04:02.668Z,33.79
2019-05-19T14:09:05.327Z,36.95
2019-05-19T14:12:01.051Z,36.73
2019-05-19T14:14:29.400Z,39.13
2019-05-19T14:16:57.767Z,38.03
2019-05-19T14:19:26.318Z,36.15
2019-05-19T14:22:01.520Z,37.84
2019-05-19T14:24:29.872Z,33.29
2019-05-19T14:27:04.426Z,30.60
2019-05-19T14:29:32.785Z,32.76
2019-05-19T14:32:27.243Z,31.84
2019-05-19T14:37:31.924Z,33.71
2019-05-19T14:40:04.249Z,32.13
2019-05-19T14:42:39.020Z,31.03
2019-05-19T14:47:43.895Z,28.24
2019-05-19T14:50:25.328Z,26.48
2019-05-19T14:53:00.208Z,27.79
2019-05-19T14:55:29.946Z,25.54
2019-05-19T14:58:10.213Z,25.07
2019-05-19T15:00:38.566Z,23.77
2019-05-19T15:03:06.908Z,24.10
2019-05-19T15:05:35.272Z,23.96
2019-05-19T15:08:12.098Z,24.41
2019-05-19T15:10:40.451Z,24.66
2019-05-19T15:13:12.182Z,25.24
2019-05-19T15:15:40.536Z,24.87
2019-05-19T15:18:08.976Z,24.90
2019-05-19T15:20:37.343Z,25.33
2019-05-19T15:23:23.295Z,24.88
2019-05-19T15:25:53.535Z,24.88
2019-05-19T15:31:04.273Z,26.22
2019-05-19T15:33:38.431Z,25.63
2019-05-19T15:36:19.513Z,25.56
2019-05-19T15:39:04.514Z,25.23
2019-05-19T15:41:33.354Z,25.45
2019-05-19T15:44:05.381Z,25.95
2019-05-19T15:46:33.739Z,25.55
2019-05-19T15:49:26.009Z,26.31
2019-05-19T15:52:13.767Z,26.24
2019-05-19T15:54:42.118Z,26.86
2019-05-19T15:57:10.465Z,27.07
2019-05-19T15:59:39.786Z,27.31
2019-05-19T16:02:09.024Z,27.27
2019-05-19T16:04:37.415Z,27.50
2019-05-19T16:07:11.777Z,27.20
2019-05-19T16:09:40.103Z,27.14
2019-05-19T16:12:09.352Z,27.11
2019-05-19T16:14:38.603Z,26.86
2019-05-19T16:19:43.258Z,27.02
2019-05-19T16:22:12.520Z,26.38
2019-05-19T16:24:40.863Z,26.28
2019-05-19T16:30:07.656Z,24.32
2019-05-19T16:32:36.011Z,23.65
2019-05-19T16:35:11.667Z,22.84
2019-05-19T16:37:40.038Z,22.74
2019-05-19T16:40:14.095Z,23.29
2019-05-19T16:42:42.453Z,23.20
2019-05-19T16:48:10.251Z,20.86
2019-05-19T16:50:38.614Z,20.79
2019-05-19T16:53:07.074Z,20.21
2019-05-19T16:55:38.449Z,19.94
2019-05-19T16:58:28.256Z,19.37
2019-05-19T17:00:56.653Z,18.98
2019-05-19T17:03:25.962Z,19.01
2019-05-19T17:05:54.364Z,18.93
2019-05-19T17:08:27.495Z,19.00
2019-05-19T17:10:55.971Z,18.98
2019-05-19T17:13:25.272Z,18.80
2019-05-19T17:15:54.494Z,18.72
2019-05-19T17:21:01.141Z,18.06
2019-05-19T17:23:29.519Z,17.90
2019-05-19T17:25:57.866Z,17.90
2019-05-19T17:28:26.233Z,17.72
2019-05-19T17:30:54.569Z,17.65
2019-05-19T17:33:22.939Z,17.65
2019-05-19T17:35:51.292Z,17.56
2019-05-19T17:38:19.681Z,17.61
2019-05-19T17:40:48.044Z,17.50
2019-05-19T17:43:16.398Z,17.20
2019-05-19T17:45:47.845Z,17.03
2019-05-19T17:48:26.131Z,17.13
2019-05-19T17:50:44.597Z,17.09
2019-05-19T17:53:13.077Z,16.97
2019-05-19T17:55:42.078Z,16.92
2019-05-19T17:58:11.102Z,16.73
2019-05-19T18:00:40.280Z,16.62
2019-05-19T18:03:12.496Z,16.47
2019-05-19T18:05:41.765Z,16.29
2019-05-19T18:08:10.581Z,16.30
2019-05-19T18:10:38.960Z,16.18
2019-05-19T18:13:07.331Z,16.07
2019-05-19T18:15:35.689Z,16.14
2019-05-19T18:18:07.816Z,16.09
2019-05-19T18:20:36.216Z,16.10
2019-05-19T18:23:05.379Z,15.94
2019-05-19T18:25:33.819Z,15.91
2019-05-19T18:28:02.159Z,15.81
2019-05-19T18:30:30.561Z,15.70
2019-05-19T18:33:00.969Z,15.60
2019-05-19T18:35:29.796Z,15.59
2019-05-19T18:37:58.865Z,15.62
2019-05-19T18:40:27.255Z,15.52
2019-05-19T18:42:56.505Z,15.54
2019-05-19T18:48:01.269Z,15.51
2019-05-19T18:53:10.889Z,15.56
2019-05-19T18:55:49.523Z,15.47
2019-05-19T19:00:57.410Z,15.66
2019-05-19T19:03:26.736Z,15.62
2019-05-19T19:05:56.004Z,15.56
2019-05-19T19:08:24.394Z,15.58
2019-05-19T19:10:54.862Z,15.63
2019-05-19T19:13:24.020Z,15.67
2019-05-19T19:15:54.345Z,15.61
2019-05-19T19:18:22.716Z,15.84
2019-05-19T19:20:51.105Z,15.87
2019-05-19T19:23:19.477Z,15.78
2019-05-19T19:26:00.400Z,15.72
2019-05-19T19:28:28.776Z,15.50
2019-05-19T19:33:33.409Z,15.41
2019-05-19T19:36:01.800Z,15.33
2019-05-19T19:38:30.154Z,15.32
2019-05-19T19:40:58.555Z,15.30
2019-05-19T19:43:26.908Z,15.00
2019-05-19T19:45:55.268Z,14.80
2019-05-19T19:48:24.574Z,14.56
2019-05-19T19:50:52.942Z,14.49
2019-05-19T19:53:23.303Z,14.50
2019-05-19T19:55:51.696Z,14.38
2019-05-19T19:58:25.589Z,14.43
2019-05-19T20:00:54.094Z,14.40
2019-05-19T20:06:10.995Z,14.22
2019-05-19T20:08:39.353Z,14.24
2019-05-19T20:11:08.634Z,14.11
2019-05-19T20:13:37.017Z,13.85
2019-05-19T20:16:17.218Z,13.79
2019-05-19T20:18:45.605Z,13.76
2019-05-19T20:21:28.347Z,13.59
2019-05-19T20:24:00.710Z,13.44
2019-05-19T20:26:29.097Z,13.27
2019-05-19T20:28:57.517Z,13.13
2019-05-19T20:31:26.025Z,13.07
2019-05-19T20:33:54.414Z,13.14
2019-05-19T20:36:33.499Z,13.23
2019-05-19T20:41:38.162Z,13.26
2019-05-19T20:44:06.550Z,13.19
2019-05-19T20:46:35.934Z,13.20
2019-05-19T20:49:05.218Z,13.20
2019-05-19T20:51:35.528Z,13.18
2019-05-19T20:54:03.896Z,13.09
2019-05-19T20:59:09.589Z,13.08
2019-05-19T21:04:09.851Z,13.14
2019-05-19T21:06:38.216Z,13.23
2019-05-19T21:09:07.456Z,13.12
2019-05-19T21:11:35.380Z,13.16
2019-05-19T21:14:03.293Z,13.21
2019-05-19T21:16:34.399Z,13.11
2019-05-19T21:19:02.348Z,12.99
2019-05-19T21:21:30.251Z,12.93
2019-05-19T21:23:58.156Z,12.89
2019-05-19T21:26:26.073Z,12.94
2019-05-19T21:28:53.992Z,12.90
2019-05-19T21:31:21.899Z,12.97
2019-05-19T21:33:53.400Z,12.98
2019-05-19T21:36:24.541Z,12.96
2019-05-19T21:38:52.462Z,12.88
2019-05-19T21:41:20.424Z,12.87
2019-05-19T21:43:48.291Z,12.81
2019-05-19T21:46:16.251Z,12.81
2019-05-19T21:48:44.139Z,12.79
2019-05-19T21:51:12.132Z,12.71
2019-05-19T21:53:39.978Z,12.65
2019-05-19T21:56:07.886Z,12.63
2019-05-19T21:58:36.746Z,12.60
2019-05-19T22:01:04.668Z,12.57
2019-05-19T22:03:35.953Z,12.57
2019-05-19T22:06:03.878Z,12.61
2019-05-19T22:08:31.787Z,12.53
2019-05-19T22:10:59.701Z,12.51
2019-05-19T22:13:27.612Z,12.51
2019-05-19T22:16:12.216Z,12.44
2019-05-19T22:18:26.448Z,12.43
2019-05-19T22:20:54.386Z,12.32
2019-05-19T22:23:22.291Z,12.29
2019-05-19T22:25:50.195Z,12.22
2019-05-19T22:28:18.144Z,12.20
2019-05-19T22:30:47.044Z,12.20
2019-05-19T22:33:14.955Z,12.19
2019-05-19T22:35:43.849Z,12.19
2019-05-19T22:38:11.785Z,12.20
2019-05-19T22:40:44.260Z,12.19
2019-05-19T22:43:12.205Z,12.19
2019-05-19T22:45:41.118Z,12.15
2019-05-19T22:48:09.037Z,12.10
2019-05-19T22:50:36.980Z,12.03
2019-05-19T22:53:04.892Z,12.02
2019-05-19T22:55:32.883Z,12.01
2019-05-19T22:58:00.789Z,12.01
2019-05-19T23:00:28.715Z,12.00
2019-05-19T23:02:56.641Z,12.01
2019-05-19T23:05:24.562Z,12.00
2019-05-19T23:07:53.410Z,11.94
2019-05-19T23:10:21.321Z,11.97
2019-05-19T23:12:50.180Z,11.97
2019-05-19T23:15:18.110Z,11.94
2019-05-19T23:17:46.045Z,11.92
2019-05-19T23:20:13.945Z,11.88
2019-05-19T23:22:41.904Z,11.88
2019-05-19T23:25:09.783Z,11.87
2019-05-19T23:27:38.606Z,11.87
2019-05-19T23:30:07.408Z,11.92
2019-05-19T23:32:36.317Z,11.93
2019-05-19T23:35:05.958Z,11.95
2019-05-19T23:37:33.867Z,11.91
2019-05-19T23:40:01.831Z,11.94
2019-05-19T23:42:30.697Z,11.99
2019-05-19T23:44:58.645Z,12.00
2019-05-19T23:47:26.557Z,12.04
2019-05-19T23:49:54.522Z,12.03
2019-05-19T23:52:22.414Z,12.04
2019-05-19T23:54:50.345Z,12.08
2019-05-19T23:57:18.261Z,12.09
2019-05-19T23:59:46.191Z,12.08
